CheckWX is a tool to help pilots better visualize weather data.  It is not intended as a substitute for an official pre-flight weather briefing.

19:33:36 UTC

KRPH METAR
Graham Municipal Airport
Graham, Texas, USA
Current

24 mins ago

KRPH 261910Z AUTO 15009G16KT 10SM SCT041 SCT060 28/19 A3000 RMK AO2 T02840194
Observed
May-26 @ 19:10 UTC
Wind
  • 150° at 9 KTS
  • Gusting to 16 KTS
Visibility
10 SM
Flight Rules
VFR
Cloud Levels
  • Scattered at 4,100' AGL
  • Scattered at 6,000' AGL
Temperature
28°C / 82°F
Dewpoint
19°C / 66°F
Heat Index
29°C / 84°F
Humidity
58%
Altimeter
30" Hg
Pressure
1015.92 hPa
Previous

44 mins ago

KRPH 261850Z AUTO 18009G15KT 10SM SCT041 29/20 A3001 RMK AO2 T02870199
Observed
May-26 @ 18:50 UTC
Wind
  • 180° at 9 KTS
  • Gusting to 15 KTS
Visibility
10 SM
Flight Rules
VFR
Cloud Levels
  • Scattered at 4,100' AGL
Temperature
29°C / 84°F
Dewpoint
20°C / 68°F
Heat Index
31°C / 87°F
Humidity
58%
Altimeter
30.01" Hg
Pressure
1016.22 hPa
Previous

1 hour ago

KRPH 261830Z AUTO 17009G17KT 10SM SCT038 28/20 A3001 RMK AO2 T02810197
Observed
May-26 @ 18:30 UTC
Wind
  • 170° at 9 KTS
  • Gusting to 17 KTS
Visibility
10 SM
Flight Rules
VFR
Cloud Levels
  • Scattered at 3,800' AGL
Temperature
28°C / 82°F
Dewpoint
20°C / 68°F
Heat Index
29°C / 85°F
Humidity
62%
Altimeter
30.01" Hg
Pressure
1016.22 hPa